Time;durP1;ratioP1;P1;durP2;ratioP2;P2;SDS_P1;SDS_P2;PMS_P1;PMS_P2;Temp;Humidity;BMP_temperature;BMP_pressure;BME280_temperature;BME280_humidity;BME280_pressure;Samples;Min_cycle;Max_cycle;Signal;HPM_P1;HPM_P2
2022/07/07 00:02:59;;;;;;;;;;;;;;;22.99;59.85;99289.03;5014025;28;633;-64
2022/07/07 00:05:27;;;;;;;;;;;;;;;22.99;59.78;99289.03;5013566;28;838;-64
2022/07/07 00:07:55;;;;;;;;;;;;;;;23.00;59.18;99282.94;5013588;28;807;-63
2022/07/07 00:10:21;;;;;;;;;;;;;;;23.02;59.34;99279.59;5013681;28;866;-63
2022/07/07 00:24:58;;;;;;;;;;;;;;;22.97;59.50;99283.13;5013834;28;617;-65
2022/07/07 00:27:24;;;;;;;;;;;;;;;22.97;59.60;99275.44;5013877;28;842;-62
2022/07/07 00:29:53;;;;;;;;;;;;;;;22.97;59.51;99280.31;5013143;28;874;-64
2022/07/07 00:32:19;;;;;;;;;;;;;;;22.97;59.83;99271.88;5013472;28;979;-64
2022/07/07 00:34:46;;;;;;;;;;;;;;;22.94;59.73;99281.34;5013475;28;913;-64
2022/07/07 00:37:13;;;;;;;;;;;;;;;22.91;59.60;99273.88;5013647;28;814;-63
2022/07/07 00:39:41;;;;;;;;;;;;;;;22.85;59.74;99268.19;5013048;28;799;-62
2022/07/07 00:42:23;;;;;;;;;;;;;;;22.83;60.22;99276.38;5012934;28;1955;-64
2022/07/07 00:44:50;;;;;;;;;;;;;;;22.79;60.19;99275.84;4995193;28;1367;-64
2022/07/07 00:47:18;;;;;;;;;;;;;;;22.78;60.02;99280.69;5012782;28;979;-64
2022/07/07 00:49:46;;;;;;;;;;;;;;;22.81;59.78;99278.94;5012280;28;795;-64
2022/07/07 00:52:13;;;;;;;;;;;;;;;22.81;60.00;99276.13;5012667;28;799;-64
2022/07/07 00:54:54;;;;;;;;;;;;;;;22.83;60.08;99273.56;5012651;28;835;-63
2022/07/07 01:00:25;;;;;;;;;;;;;;;22.65;60.66;99276.75;5012726;28;602;-64
2022/07/07 01:02:51;;;;;;;;;;;;;;;22.64;60.74;99275.97;5012517;28;1910;-65
2022/07/07 01:05:18;;;;;;;;;;;;;;;22.65;60.76;99288.75;4994810;28;1224;-63
2022/07/07 01:07:45;;;;;;;;;;;;;;;22.67;60.71;99288.28;4994791;28;1577;-64
2022/07/07 01:10:12;;;;;;;;;;;;;;;22.66;60.79;99278.25;5012431;28;842;-63
2022/07/07 01:12:40;;;;;;;;;;;;;;;22.65;60.83;99288.75;5012401;28;859;-64
2022/07/07 01:15:09;;;;;;;;;;;;;;;22.66;60.95;99278.25;5012246;28;862;-64
2022/07/07 01:17:35;;;;;;;;;;;;;;;22.66;60.87;99281.09;5012195;28;1066;-64
2022/07/07 01:20:04;;;;;;;;;;;;;;;22.70;60.88;99282.41;5012245;28;914;-64
2022/07/07 01:22:32;;;;;;;;;;;;;;;22.71;60.82;99281.16;5012106;28;1890;-64
2022/07/07 01:24:58;;;;;;;;;;;;;;;22.69;60.50;99288.56;5012248;28;795;-64
2022/07/07 01:27:25;;;;;;;;;;;;;;;22.66;60.96;99284.69;5012218;28;1022;-63
2022/07/07 01:42:05;;;;;;;;;;;;;;;22.47;61.88;99298.34;5011943;28;1953;-64
2022/07/07 01:44:36;;;;;;;;;;;;;;;22.36;62.18;99309.47;4994351;28;1188;-63
2022/07/07 01:47:03;;;;;;;;;;;;;;;22.28;62.83;99302.75;5011757;28;842;-63
2022/07/07 01:49:31;;;;;;;;;;;;;;;22.20;62.83;99299.56;5012140;28;842;-63
2022/07/07 01:51:58;;;;;;;;;;;;;;;22.22;63.02;99309.06;5012123;28;807;-63
2022/07/07 01:54:26;;;;;;;;;;;;;;;22.24;62.83;99305.00;5011829;28;795;-63
2022/07/07 01:56:52;;;;;;;;;;;;;;;22.23;62.83;99309.84;5011768;28;783;-63
2022/07/07 01:59:19;;;;;;;;;;;;;;;22.16;63.06;99307.44;5011787;28;807;-63
2022/07/07 02:01:45;;;;;;;;;;;;;;;22.13;63.57;99309.22;5011662;28;1964;-63
2022/07/07 02:04:12;;;;;;;;;;;;;;;22.10;63.38;99313.00;5015784;28;862;-63
2022/07/07 02:06:40;;;;;;;;;;;;;;;22.09;63.65;99310.69;5015795;28;831;-63
2022/07/07 02:09:07;;;;;;;;;;;;;;;22.09;63.70;99313.50;5015869;28;803;-64
2022/07/07 02:11:34;;;;;;;;;;;;;;;22.06;63.63;99306.81;5015695;28;866;-65
2022/07/07 02:14:02;;;;;;;;;;;;;;;22.03;63.93;99307.81;4998090;28;1307;-63
2022/07/07 02:16:28;;;;;;;;;;;;;;;21.98;63.66;99300.09;5015525;28;878;-64
2022/07/07 02:18:59;;;;;;;;;;;;;;;22.06;63.51;99309.63;5015562;28;870;-65
2022/07/07 02:21:26;;;;;;;;;;;;;;;21.98;63.73;99316.97;5015422;28;1886;-64
2022/07/07 02:23:53;;;;;;;;;;;;;;;22.03;63.79;99319.06;4997835;28;1324;-64
2022/07/07 02:26:19;;;;;;;;;;;;;;;22.14;63.10;99312.78;5015456;28;807;-65
2022/07/07 02:28:46;;;;;;;;;;;;;;;22.17;62.69;99312.59;5015385;28;930;-65
2022/07/07 02:31:12;;;;;;;;;;;;;;;22.17;62.79;99309.78;5015372;28;942;-64
2022/07/07 02:33:39;;;;;;;;;;;;;;;22.18;62.57;99311.31;5015332;28;806;-63
2022/07/07 02:36:07;;;;;;;;;;;;;;;22.17;62.73;99304.16;5015240;28;874;-65
2022/07/07 02:38:34;;;;;;;;;;;;;;;22.18;62.88;99305.69;4997616;28;1221;-64
2022/07/07 02:40:59;;;;;;;;;;;;;;;22.19;62.60;99295.97;5015083;28;1881;-64
2022/07/07 02:46:35;;;;;;;;;;;;;;;22.15;62.59;99298.25;5013611;28;1185;-65
2022/07/07 02:49:02;;;;;;;;;;;;;;;22.20;62.54;99303.13;5015014;28;912;-64
2022/07/07 02:51:29;;;;;;;;;;;;;;;22.18;62.58;99308.50;5014949;28;843;-64
2022/07/07 02:53:55;;;;;;;;;;;;;;;22.22;62.58;99303.44;5014932;28;843;-64
2022/07/07 02:59:23;;;;;;;;;;;;;;;22.21;62.71;99315.16;5014897;28;597;-64
2022/07/07 03:01:50;;;;;;;;;;;;;;;22.14;62.98;99310.75;5014738;28;1911;-64
2022/07/07 03:04:17;;;;;;;;;;;;;;;22.04;63.68;99312.19;5014989;28;842;-63
2022/07/07 03:06:44;;;;;;;;;;;;;;;21.92;64.15;99319.72;5014812;28;871;-63
2022/07/07 03:09:10;;;;;;;;;;;;;;;21.81;64.92;99322.38;5014674;28;816;-64
2022/07/07 03:11:37;;;;;;;;;;;;;;;21.71;65.57;99321.72;5014664;28;807;-64
2022/07/07 03:14:03;;;;;;;;;;;;;;;21.66;65.66;99330.88;4996536;28;1291;-64
2022/07/07 03:16:32;;;;;;;;;;;;;;;21.60;65.99;99327.97;5014664;28;807;-64
2022/07/07 03:18:59;;;;;;;;;;;;;;;21.54;66.59;99334.78;5014497;28;846;-62
2022/07/07 03:21:25;;;;;;;;;;;;;;;21.52;66.50;99343.72;5014427;28;1910;-63
2022/07/07 03:23:52;;;;;;;;;;;;;;;21.51;66.59;99335.78;5014439;28;831;-64
2022/07/07 03:26:18;;;;;;;;;;;;;;;21.50;67.04;99334.22;5014377;28;882;-64
2022/07/07 03:28:44;;;;;;;;;;;;;;;21.51;67.07;99335.78;5014475;28;842;-64
2022/07/07 03:31:11;;;;;;;;;;;;;;;21.46;67.53;99344.91;5014517;28;1002;-63
2022/07/07 03:33:37;;;;;;;;;;;;;;;21.45;67.27;99361.00;5014523;28;930;-64
2022/07/07 03:36:04;;;;;;;;;;;;;;;21.44;67.70;99355.84;5014941;28;846;-64
2022/07/07 03:38:30;;;;;;;;;;;;;;;21.42;67.89;99356.34;5014143;28;802;-64
2022/07/07 03:40:57;;;;;;;;;;;;;;;21.38;68.21;99352.94;5014023;28;1886;-62
2022/07/07 03:43:23;;;;;;;;;;;;;;;21.42;68.28;99361.97;5014028;28;877;-64
2022/07/07 03:45:51;;;;;;;;;;;;;;;21.51;68.29;99355.47;5013714;28;1378;-63
2022/07/07 03:48:17;;;;;;;;;;;;;;;21.56;67.89;99355.53;4996437;28;1351;-66
2022/07/07 03:50:43;;;;;;;;;;;;;;;21.69;67.79;99360.81;5013809;28;850;-63
2022/07/07 03:53:10;;;;;;;;;;;;;;;21.70;68.16;99351.13;5013888;28;843;-65
2022/07/07 03:55:36;;;;;;;;;;;;;;;21.76;67.80;99360.44;4996266;28;1268;-63
2022/07/07 03:58:02;;;;;;;;;;;;;;;21.79;67.91;99356.63;5013731;28;799;-64
2022/07/07 04:00:42;;;;;;;;;;;;;;;21.82;68.33;99363.28;5013741;28;886;-64
2022/07/07 04:03:09;;;;;;;;;;;;;;;21.82;68.66;99355.63;5013605;28;890;-64
2022/07/07 04:05:35;;;;;;;;;;;;;;;21.84;68.97;99357.19;4996068;28;1200;-63
2022/07/07 04:14:08;;;;;;;;;;;;;;;21.97;68.39;99360.44;5013451;28;625;-62
2022/07/07 04:16:38;;;;;;;;;;;;;;;22.03;68.48;99364.09;5013619;28;865;-63
2022/07/07 04:19:04;;;;;;;;;;;;;;;22.08;68.08;99366.19;5013380;28;807;-64
2022/07/07 04:21:32;;;;;;;;;;;;;;;22.10;68.27;99366.47;5013195;28;1970;-64
2022/07/07 04:23:59;;;;;;;;;;;;;;;22.15;68.01;99353.75;5013277;28;807;-64
2022/07/07 04:29:28;;;;;;;;;;;;;;;22.31;67.30;99358.06;5013192;28;614;-62
2022/07/07 04:31:55;;;;;;;;;;;;;;;22.42;67.01;99367.41;5013275;28;864;-63
2022/07/07 04:34:25;;;;;;;;;;;;;;;22.62;66.89;99358.13;5013097;28;862;-63
2022/07/07 04:36:52;;;;;;;;;;;;;;;22.87;66.26;99357.84;5012980;28;811;-63
2022/07/07 04:39:18;;;;;;;;;;;;;;;23.08;65.44;99345.25;5012989;28;842;-63
2022/07/07 04:41:44;;;;;;;;;;;;;;;23.33;64.23;99360.56;4995278;28;1890;-63
2022/07/07 04:44:11;;;;;;;;;;;;;;;23.55;63.04;99347.88;5012738;28;865;-63
2022/07/07 04:46:38;;;;;;;;;;;;;;;23.90;62.59;99341.97;5012597;28;1267;-63
2022/07/07 04:49:05;;;;;;;;;;;;;;;24.09;60.75;99369.72;5012778;28;875;-63
2022/07/07 04:51:31;;;;;;;;;;;;;;;24.20;60.57;99347.97;5012758;28;838;-63
2022/07/07 04:54:15;;;;;;;;;;;;;;;24.37;60.08;99372.69;5012835;28;860;-63
2022/07/07 04:56:41;;;;;;;;;;;;;;;24.55;59.91;99351.69;5012730;28;818;-62
2022/07/07 04:59:08;;;;;;;;;;;;;;;24.63;59.43;99353.50;5012577;28;898;-63
2022/07/07 05:01:35;;;;;;;;;;;;;;;24.71;59.51;99350.16;5012612;28;1914;-63
2022/07/07 05:04:02;;;;;;;;;;;;;;;24.84;59.64;99356.09;5012572;28;827;-63
2022/07/07 05:06:29;;;;;;;;;;;;;;;25.05;59.65;99348.91;5012443;28;1197;-63
2022/07/07 05:09:00;;;;;;;;;;;;;;;25.02;59.17;99358.41;5012481;28;824;-62
2022/07/07 05:11:26;;;;;;;;;;;;;;;24.51;60.66;99356.81;5012408;28;861;-62
2022/07/07 05:13:52;;;;;;;;;;;;;;;24.21;61.91;99349.50;5012311;28;862;-63
2022/07/07 05:16:19;;;;;;;;;;;;;;;23.97;62.67;99349.16;5012392;28;819;-63
2022/07/07 05:18:46;;;;;;;;;;;;;;;23.55;64.06;99357.09;5012314;28;855;-63
2022/07/07 05:21:13;;;;;;;;;;;;;;;23.22;65.25;99357.66;5012232;28;1886;-64
2022/07/07 05:23:40;;;;;;;;;;;;;;;23.00;66.66;99352.56;5012233;28;914;-63
2022/07/07 05:26:29;;;;;;;;;;;;;;;22.91;67.60;99376.06;5012217;28;898;-62
2022/07/07 05:28:55;;;;;;;;;;;;;;;23.14;67.64;99360.16;5012456;28;854;-63
2022/07/07 05:31:22;;;;;;;;;;;;;;;23.35;66.91;99360.84;5012026;28;984;-64
2022/07/07 05:33:49;;;;;;;;;;;;;;;23.81;65.64;99359.88;5012215;28;827;-61
2022/07/07 05:39:51;;;;;;;;;;;;;;;24.93;62.21;99367.16;5012147;28;669;-63
2022/07/07 05:42:24;;;;;;;;;;;;;;;25.33;60.16;99379.28;5011874;28;1890;-63
2022/07/07 05:44:50;;;;;;;;;;;;;;;25.48;59.73;99364.84;5012010;28;886;-63
2022/07/07 05:47:17;;;;;;;;;;;;;;;25.67;59.28;99363.00;5011628;28;1252;-61
2022/07/07 05:49:46;;;;;;;;;;;;;;;26.01;58.06;99365.78;5012151;28;901;-63
2022/07/07 05:52:12;;;;;;;;;;;;;;;25.97;58.17;99362.44;5012157;28;851;-62
2022/07/07 05:54:40;;;;;;;;;;;;;;;26.38;57.29;99380.81;5012404;28;1109;-63
2022/07/07 05:57:07;;;;;;;;;;;;;;;26.87;55.71;99361.22;5012246;28;969;-63
2022/07/07 05:59:34;;;;;;;;;;;;;;;27.28;54.90;99381.00;4994360;28;1648;-65
2022/07/07 06:02:01;;;;;;;;;;;;;;;27.35;53.73;99379.66;5011797;28;1906;-63
2022/07/07 06:07:31;;;;;;;;;;;;;;;25.63;57.84;99404.19;5011815;28;688;-62
2022/07/07 06:09:58;;;;;;;;;;;;;;;25.38;59.22;99401.13;5011556;28;882;-64
2022/07/07 06:12:25;;;;;;;;;;;;;;;24.93;60.80;99394.66;5011587;28;831;-63
2022/07/07 06:14:51;;;;;;;;;;;;;;;24.71;62.21;99401.81;5011829;28;878;-64
2022/07/07 06:27:00;;;;;;;;;;;;;;;25.16;61.38;99412.41;5011864;28;622;-63
2022/07/07 06:29:27;;;;;;;;;;;;;;;25.45;60.69;99411.94;5011526;28;803;-62
2022/07/07 06:44:04;;;;;;;;;;;;;;;26.98;55.39;99420.66;5011650;28;893;-62
2022/07/07 06:46:32;;;;;;;;;;;;;;;27.28;54.39;99403.69;5011238;28;1200;-62
2022/07/07 06:48:59;;;;;;;;;;;;;;;27.60;53.11;99411.66;4995514;28;850;-63
2022/07/07 07:03:39;;;;;;;;;;;;;;;27.77;52.24;99428.53;5015250;28;685;-62
2022/07/07 07:06:06;;;;;;;;;;;;;;;27.82;52.83;99429.78;5014910;28;827;-63
2022/07/07 07:08:33;;;;;;;;;;;;;;;27.37;52.47;99427.34;5014883;28;806;-62
2022/07/07 07:10:59;;;;;;;;;;;;;;;26.25;55.88;99429.53;5014767;28;787;-62
2022/07/07 07:13:26;;;;;;;;;;;;;;;26.31;56.59;99429.50;5014934;28;823;-62
2022/07/07 07:28:11;;;;;;;;;;;;;;;29.65;48.15;99431.97;5014647;28;606;-63
2022/07/07 07:30:38;;;;;;;;;;;;;;;29.99;47.51;99427.75;4996702;28;1355;-62
2022/07/07 07:33:05;;;;;;;;;;;;;;;30.68;45.92;99420.13;5014656;28;909;-62
2022/07/07 07:50:41;;;;;;;;;;;;;;;30.63;45.68;99438.91;5013963;28;657;-63
2022/07/07 07:53:11;;;;;;;;;;;;;;;31.09;44.65;99436.59;5013899;28;866;-63
2022/07/07 07:58:52;;;;;;;;;;;;;;;31.03;44.70;99441.66;5013856;28;664;-63
2022/07/07 08:01:20;;;;;;;;;;;;;;;31.54;43.39;99435.50;5012442;28;1982;-64
2022/07/07 08:03:46;;;;;;;;;;;;;;;31.75;42.71;99440.44;5013673;28;815;-63
2022/07/07 08:06:12;;;;;;;;;;;;;;;31.47;42.71;99449.72;5013588;28;823;-62
2022/07/07 08:08:38;;;;;;;;;;;;;;;32.03;42.03;99441.78;5013542;28;819;-63
2022/07/07 08:11:05;;;;;;;;;;;;;;;32.41;41.99;99444.09;5013733;28;803;-63
2022/07/07 08:13:32;;;;;;;;;;;;;;;33.25;39.80;99460.84;5013426;28;839;-62
2022/07/07 08:15:59;;;;;;;;;;;;;;;33.34;39.22;99457.41;4995804;28;1509;-63
2022/07/07 08:18:27;;;;;;;;;;;;;;;32.86;39.87;99455.00;5013582;28;870;-63
2022/07/07 08:20:53;;;;;;;;;;;;;;;32.79;40.66;99461.44;5013334;28;882;-63
2022/07/07 08:23:19;;;;;;;;;;;;;;;31.69;42.49;99451.25;5013298;28;863;-65
2022/07/07 08:25:49;;;;;;;;;;;;;;;30.38;45.00;99466.13;5013292;28;815;-64
2022/07/07 08:40:26;;;;;;;;;;;;;;;28.22;51.18;99479.22;5013190;28;610;-65
2022/07/07 08:42:53;;;;;;;;;;;;;;;28.12;51.72;99485.78;4995342;28;1949;-64
2022/07/07 08:45:20;;;;;;;;;;;;;;;28.17;51.46;99480.06;5013107;28;803;-64
2022/07/07 08:50:51;;;;;;;;;;;;;;;28.80;50.74;99477.25;5012911;28;769;-64
2022/07/07 08:53:18;;;;;;;;;;;;;;;29.10;50.26;99477.09;5012799;28;819;-63
2022/07/07 08:55:47;;;;;;;;;;;;;;;30.07;46.98;99475.00;5012730;28;799;-65
2022/07/07 08:58:15;;;;;;;;;;;;;;;30.25;47.11;99486.84;5012736;28;873;-64
2022/07/07 09:00:42;;;;;;;;;;;;;;;30.17;46.35;99485.94;5012628;28;861;-64
2022/07/07 09:03:10;;;;;;;;;;;;;;;30.17;46.52;99489.59;5012540;28;1969;-64
2022/07/07 09:05:41;;;;;;;;;;;;;;;30.16;46.22;99490.88;5012895;28;854;-66
2022/07/07 09:08:20;;;;;;;;;;;;;;;30.13;45.79;99483.44;5012427;28;855;-64
2022/07/07 09:10:47;;;;;;;;;;;;;;;30.10;47.24;99487.38;5012170;28;823;-63
2022/07/07 09:13:35;;;;;;;;;;;;;;;30.36;45.37;99492.31;5012343;28;795;-63
2022/07/07 09:16:04;;;;;;;;;;;;;;;29.82;46.46;99493.59;5012446;28;886;-64
2022/07/07 09:18:38;;;;;;;;;;;;;;;29.50;46.62;99503.66;5012366;28;882;-65
2022/07/07 09:21:06;;;;;;;;;;;;;;;29.08;48.31;99502.44;5012238;28;1957;-66
2022/07/07 09:23:50;;;;;;;;;;;;;;;29.10;48.55;99497.81;5012246;28;831;-64
2022/07/07 09:26:34;;;;;;;;;;;;;;;29.26;47.62;99509.47;5012493;28;874;-66
2022/07/07 09:53:59;;;;;;;;;;;;;;;28.67;49.48;99475.09;5008142;28;1337;-64
2022/07/07 09:56:35;;;;;;;;;;;;;;;28.27;50.33;99486.13;5011840;28;851;-64
2022/07/07 09:59:03;;;;;;;;;;;;;;;28.06;51.01;99478.09;5011811;28;818;-63
2022/07/07 10:01:32;;;;;;;;;;;;;;;27.94;51.61;99471.00;5011729;28;1989;-66
2022/07/07 10:32:33;;;;;;;;;;;;;;;27.88;52.49;99488.06;5465631;23;1513;-69
2022/07/07 10:35:10;;;;;;;;;;;;;;;28.19;52.30;99490.91;5015391;28;862;-68
2022/07/07 10:37:50;;;;;;;;;;;;;;;28.70;50.45;99483.31;5015352;28;845;-73
2022/07/07 10:40:26;;;;;;;;;;;;;;;28.85;49.16;99491.41;4997953;28;1100;-70
2022/07/07 10:43:08;;;;;;;;;;;;;;;28.65;49.67;99501.22;5015171;28;1970;-68
2022/07/07 10:45:35;;;;;;;;;;;;;;;28.07;50.41;99491.00;4997552;28;1140;-69
2022/07/07 10:48:14;;;;;;;;;;;;;;;27.69;51.82;99498.56;5015219;28;894;-68
2022/07/07 10:50:41;;;;;;;;;;;;;;;27.61;51.84;99497.59;4997454;28;1304;-68
2022/07/07 10:53:30;;;;;;;;;;;;;;;27.60;52.00;99508.19;5015051;28;912;-70
2022/07/07 10:56:14;;;;;;;;;;;;;;;27.82;51.42;99501.53;4957700;28;1068;-66
2022/07/07 10:58:57;;;;;;;;;;;;;;;27.95;51.48;99509.44;4973836;28;906;-69
2022/07/07 11:01:27;;;;;;;;;;;;;;;27.94;50.82;99502.22;4973697;28;1883;-68
2022/07/07 11:07:12;;;;;;;;;;;;;;;27.61;51.70;99504.06;4973789;28;996;-70
2022/07/07 11:09:57;;;;;;;;;;;;;;;27.35;51.95;99498.81;4973517;28;1206;-68
2022/07/07 11:12:46;;;;;;;;;;;;;;;27.39;52.38;99501.38;4957404;28;1281;-68
2022/07/07 11:27:26;;;;;;;;;;;;;;;27.14;52.39;99503.31;4973283;28;684;-69
2022/07/07 11:29:56;;;;;;;;;;;;;;;26.80;52.81;99500.66;4973329;28;945;-68
2022/07/07 11:32:23;;;;;;;;;;;;;;;27.09;52.66;99499.22;4972834;28;1267;-70
2022/07/07 11:38:12;;;;;;;;;;;;;;;29.01;48.28;99500.22;4973147;28;668;-68
2022/07/07 11:40:39;;;;;;;;;;;;;;;29.17;47.75;99504.16;5007857;28;870;-68
2022/07/07 11:43:06;;;;;;;;;;;;;;;29.74;47.23;99484.91;5014353;28;1906;-68
2022/07/07 11:45:33;;;;;;;;;;;;;;;29.97;45.54;99495.91;4996577;28;1193;-67
2022/07/07 11:48:04;;;;;;;;;;;;;;;29.58;45.63;99486.72;5014221;28;803;-69
2022/07/07 11:50:31;;;;;;;;;;;;;;;29.69;45.72;99483.69;5013917;28;898;-70
2022/07/07 11:52:59;;;;;;;;;;;;;;;29.53;45.31;99498.94;4996502;28;1571;-68
2022/07/07 12:07:45;;;;;;;;;;;;;;;30.07;43.85;99488.47;5013985;28;609;-72
2022/07/07 12:10:53;;;;;;;;;;;;;;;29.56;44.58;99492.19;5011626;28;1284;-74
2022/07/07 12:16:39;;;;;;;;;;;;;;;26.93;50.82;99492.38;4953189;29;970;-70
2022/07/07 12:19:06;;;;;;;;;;;;;;;26.36;52.97;99485.38;4953259;29;799;-68
2022/07/07 12:21:41;;;;;;;;;;;;;;;25.98;54.52;99487.78;4937028;29;1906;-66
2022/07/07 12:24:07;;;;;;;;;;;;;;;25.85;55.70;99494.72;4952978;29;884;-68
2022/07/07 12:26:41;;;;;;;;;;;;;;;25.84;55.68;99500.91;4953198;29;815;-70
2022/07/07 12:29:14;;;;;;;;;;;;;;;26.02;55.65;99497.56;4952835;29;919;-69
2022/07/07 12:31:42;;;;;;;;;;;;;;;27.52;52.26;99497.94;4952871;28;1221;-68
2022/07/07 12:34:14;;;;;;;;;;;;;;;27.77;50.78;99493.84;4952974;29;890;-69
2022/07/07 12:36:42;;;;;;;;;;;;;;;27.85;51.30;99489.16;4952635;29;953;-66
2022/07/07 12:39:07;;;;;;;;;;;;;;;27.87;51.02;99495.06;4952734;29;843;-65
2022/07/07 12:41:35;;;;;;;;;;;;;;;27.57;51.80;99497.09;4952587;29;1922;-68
2022/07/07 12:44:22;;;;;;;;;;;;;;;27.72;51.24;99503.19;4952589;29;863;-68
2022/07/07 12:46:54;;;;;;;;;;;;;;;29.85;46.12;99486.78;4951904;28;851;-66
2022/07/07 12:49:21;;;;;;;;;;;;;;;30.15;44.51;99486.50;4997535;28;934;-67
2022/07/07 12:51:50;;;;;;;;;;;;;;;30.17;43.93;99488.78;5012808;28;918;-70
2022/07/07 12:54:21;;;;;;;;;;;;;;;30.75;42.60;99479.38;5012758;28;911;-72
2022/07/07 12:56:56;;;;;;;;;;;;;;;30.89;42.29;99475.16;5012731;28;811;-67
2022/07/07 12:59:27;;;;;;;;;;;;;;;30.89;42.09;99463.75;5012664;28;846;-73
2022/07/07 13:01:56;;;;;;;;;;;;;;;30.83;42.92;99476.59;5012579;28;1972;-69
2022/07/07 13:04:24;;;;;;;;;;;;;;;31.22;42.81;99467.16;5012876;28;768;-70
2022/07/07 13:06:51;;;;;;;;;;;;;;;30.95;42.29;99477.91;5012608;28;854;-72
2022/07/07 13:09:18;;;;;;;;;;;;;;;29.07;45.92;99467.53;5012533;28;870;-65
2022/07/07 13:11:49;;;;;;;;;;;;;;;27.97;48.45;99474.84;5012589;28;846;-67
2022/07/07 13:26:27;;;;;;;;;;;;;;;28.53;47.62;99468.56;5012622;28;618;-68
2022/07/07 13:28:54;;;;;;;;;;;;;;;28.50;48.10;99464.69;5012202;28;834;-69
2022/07/07 13:44:09;;;;;;;;;;;;;;;25.86;56.07;99467.97;5010839;28;1583;-67
2022/07/07 13:46:36;;;;;;;;;;;;;;;26.06;55.56;99466.91;5012014;28;886;-67
2022/07/07 13:49:05;;;;;;;;;;;;;;;26.58;54.27;99465.47;5012175;28;783;-68
2022/07/07 13:51:32;;;;;;;;;;;;;;;26.52;53.82;99466.75;5011923;28;874;-68
2022/07/07 13:54:01;;;;;;;;;;;;;;;26.25;54.73;99469.19;5011850;28;842;-68
2022/07/07 13:59:29;;;;;;;;;;;;;;;27.57;51.72;99463.03;5011745;28;594;-68
2022/07/07 14:01:58;;;;;;;;;;;;;;;28.16;50.86;99460.69;5011632;28;1906;-68
2022/07/07 14:19:38;;;;;;;;;;;;;;;27.20;51.58;99447.31;5011780;28;668;-70
2022/07/07 14:22:06;;;;;;;;;;;;;;;27.10;51.03;99449.72;5011585;28;1882;-68
2022/07/07 14:24:36;;;;;;;;;;;;;;;26.88;51.32;99453.47;4993981;28;1190;-68
2022/07/07 14:30:19;;;;;;;;;;;;;;;26.61;52.69;99443.84;5011599;28;612;-66
2022/07/07 14:32:46;;;;;;;;;;;;;;;26.60;53.62;99448.72;4994167;28;1251;-72
2022/07/07 14:35:13;;;;;;;;;;;;;;;26.69;53.57;99453.31;5011525;28;827;-72
2022/07/07 14:40:43;;;;;;;;;;;;;;;26.39;53.43;99441.81;5011765;28;775;-68
2022/07/07 14:43:10;;;;;;;;;;;;;;;26.24;53.50;99451.44;5011252;28;1916;-69
2022/07/07 14:45:35;;;;;;;;;;;;;;;26.33;53.25;99447.53;5011449;28;831;-74
2022/07/07 14:48:04;;;;;;;;;;;;;;;26.35;53.21;99456.28;4993797;28;1082;-69
2022/07/07 14:50:34;;;;;;;;;;;;;;;26.42;52.98;99449.31;5011317;28;882;-70
2022/07/07 14:59:24;;;;;;;;;;;;;;;27.18;49.94;99456.34;5011504;28;625;-71
2022/07/07 15:01:49;;;;;;;;;;;;;;;27.38;49.50;99457.28;5011510;28;1911;-68
2022/07/07 15:04:16;;;;;;;;;;;;;;;27.27;49.23;99449.63;5011430;28;906;-65
2022/07/07 15:06:43;;;;;;;;;;;;;;;27.33;49.68;99463.75;5011934;28;822;-70
2022/07/07 15:09:10;;;;;;;;;;;;;;;27.67;49.46;99450.06;5012003;28;817;-68
2022/07/07 15:23:47;;;;;;;;;;;;;;;26.49;51.71;99463.66;5014850;28;636;-69
2022/07/07 15:26:14;;;;;;;;;;;;;;;26.17;53.02;99468.19;5014358;28;947;-69
2022/07/07 15:28:43;;;;;;;;;;;;;;;25.94;53.72;99470.28;5014599;28;803;-69
2022/07/07 15:31:30;;;;;;;;;;;;;;;25.70;54.57;99468.75;5014418;28;955;-71
2022/07/07 15:33:57;;;;;;;;;;;;;;;25.56;55.51;99478.25;5014390;28;807;-68
2022/07/07 15:36:24;;;;;;;;;;;;;;;25.46;55.67;99469.28;5014279;28;869;-69
2022/07/07 15:38:50;;;;;;;;;;;;;;;25.43;56.30;99475.94;5014239;28;870;-69
2022/07/07 15:41:17;;;;;;;;;;;;;;;25.38;56.34;99473.91;5014056;28;1889;-72
2022/07/07 15:43:45;;;;;;;;;;;;;;;25.30;56.15;99476.44;5014064;28;1277;-67
2022/07/07 15:46:14;;;;;;;;;;;;;;;25.29;56.56;99486.22;4996155;28;1228;-70
2022/07/07 15:48:43;;;;;;;;;;;;;;;25.44;56.63;99480.34;5014030;28;885;-68
2022/07/07 15:51:13;;;;;;;;;;;;;;;25.50;55.82;99485.97;4996685;28;1288;-68
2022/07/07 16:05:50;;;;;;;;;;;;;;;25.63;54.30;99484.19;5014310;28;664;-67
2022/07/07 16:08:17;;;;;;;;;;;;;;;25.21;55.44;99493.66;4996042;28;1277;-68
2022/07/07 16:10:45;;;;;;;;;;;;;;;24.97;56.64;99500.53;4996433;28;1054;-67
2022/07/07 16:13:23;;;;;;;;;;;;;;;24.76;57.18;99487.88;5013540;28;913;-69
2022/07/07 16:15:50;;;;;;;;;;;;;;;24.55;58.30;99502.19;5013570;28;878;-68
2022/07/07 16:18:17;;;;;;;;;;;;;;;24.44;58.59;99499.28;5013545;28;842;-68
2022/07/07 16:20:43;;;;;;;;;;;;;;;24.24;59.58;99494.56;5012449;28;964;-69
2022/07/07 16:23:10;;;;;;;;;;;;;;;24.09;59.49;99489.09;5013559;28;1951;-68
2022/07/07 16:25:37;;;;;;;;;;;;;;;23.97;59.74;99502.34;5013214;28;838;-68
2022/07/07 16:28:04;;;;;;;;;;;;;;;23.91;60.13;99503.59;5013407;28;827;-70
2022/07/07 16:30:31;;;;;;;;;;;;;;;23.81;60.57;99502.97;5013261;28;882;-69
2022/07/07 16:32:57;;;;;;;;;;;;;;;23.74;60.78;99503.44;5013653;28;1010;-68
2022/07/07 16:35:24;;;;;;;;;;;;;;;23.68;61.16;99502.59;5013193;28;787;-70
2022/07/07 16:37:51;;;;;;;;;;;;;;;23.57;61.42;99504.06;5013241;28;861;-69
2022/07/07 16:40:17;;;;;;;;;;;;;;;23.43;61.47;99507.78;4995563;28;1184;-67
2022/07/07 16:42:44;;;;;;;;;;;;;;;23.39;61.86;99512.88;5012760;28;1922;-68
2022/07/07 16:45:11;;;;;;;;;;;;;;;23.30;61.64;99505.38;5013145;28;811;-67
2022/07/07 16:47:37;;;;;;;;;;;;;;;23.26;61.40;99504.00;5013024;28;799;-68
2022/07/07 16:50:04;;;;;;;;;;;;;;;23.19;61.70;99508.84;5012903;28;1040;-68
2022/07/07 16:52:30;;;;;;;;;;;;;;;23.12;62.10;99500.06;5012927;28;835;-69
2022/07/07 16:54:57;;;;;;;;;;;;;;;23.03;62.34;99517.91;5012708;28;811;-70
2022/07/07 16:57:25;;;;;;;;;;;;;;;22.98;62.71;99513.72;5012908;28;811;-68
2022/07/07 16:59:52;;;;;;;;;;;;;;;22.90;63.07;99509.78;5012696;28;823;-68
2022/07/07 17:02:18;;;;;;;;;;;;;;;22.81;63.45;99512.75;5012714;28;1918;-69
2022/07/07 17:04:45;;;;;;;;;;;;;;;22.74;63.79;99511.13;5012959;28;858;-67
2022/07/07 17:07:11;;;;;;;;;;;;;;;22.64;64.33;99515.38;5012627;28;894;-67
2022/07/07 17:09:38;;;;;;;;;;;;;;;22.57;64.57;99512.97;5012609;28;894;-67
2022/07/07 17:12:05;;;;;;;;;;;;;;;22.47;64.92;99503.88;5012468;28;862;-67
2022/07/07 17:14:31;;;;;;;;;;;;;;;22.40;65.27;99509.91;5012562;28;897;-66
2022/07/07 17:16:58;;;;;;;;;;;;;;;22.31;65.53;99507.25;5012445;28;787;-68
2022/07/07 17:19:29;;;;;;;;;;;;;;;22.17;66.16;99506.00;5012373;28;822;-69
2022/07/07 17:21:55;;;;;;;;;;;;;;;22.05;66.71;99507.13;5012272;28;1890;-67
2022/07/07 17:24:22;;;;;;;;;;;;;;;21.92;67.18;99504.63;5012171;28;862;-67
2022/07/07 17:26:49;;;;;;;;;;;;;;;21.88;67.12;99501.22;4994664;28;1412;-67
2022/07/07 17:29:16;;;;;;;;;;;;;;;21.80;67.29;99510.03;5012268;28;878;-69
2022/07/07 17:31:43;;;;;;;;;;;;;;;21.73;67.08;99507.66;5012111;28;952;-67
2022/07/07 17:34:11;;;;;;;;;;;;;;;21.67;67.18;99506.78;5012095;28;851;-67
2022/07/07 17:36:38;;;;;;;;;;;;;;;21.59;67.33;99514.06;4994609;28;875;-68
2022/07/07 17:39:04;;;;;;;;;;;;;;;21.52;67.33;99506.78;4994454;28;1219;-68
2022/07/07 17:44:34;;;;;;;;;;;;;;;21.39;68.29;99525.97;5011925;28;1218;-69
2022/07/07 17:47:04;;;;;;;;;;;;;;;21.31;68.76;99514.31;5012283;28;854;-68
2022/07/07 17:49:32;;;;;;;;;;;;;;;21.26;69.09;99519.84;4994259;28;1335;-72
2022/07/07 17:51:59;;;;;;;;;;;;;;;21.20;69.21;99514.88;5011948;28;819;-67
2022/07/07 17:54:26;;;;;;;;;;;;;;;21.12;69.47;99516.53;5011819;28;882;-68
2022/07/07 17:56:53;;;;;;;;;;;;;;;21.05;69.88;99519.72;4994228;28;1177;-68
2022/07/07 17:59:20;;;;;;;;;;;;;;;20.96;70.31;99525.41;5011942;28;866;-67
2022/07/07 18:01:47;;;;;;;;;;;;;;;20.88;70.56;99525.00;5011845;28;1918;-68
2022/07/07 18:04:14;;;;;;;;;;;;;;;20.82;70.69;99524.09;5011747;28;822;-67
2022/07/07 18:18:51;;;;;;;;;;;;;;;20.56;71.47;99544.22;5012001;28;665;-68
2022/07/07 18:21:18;;;;;;;;;;;;;;;20.50;71.82;99542.56;5011939;28;835;-68
2022/07/07 18:23:45;;;;;;;;;;;;;;;20.47;71.81;99541.50;5011487;28;878;-69
2022/07/07 18:26:10;;;;;;;;;;;;;;;20.41;72.01;99546.19;5011626;28;823;-70